Time;durP1;ratioP1;P1;durP2;ratioP2;P2;SDS_P1;SDS_P2;PMS_P1;PMS_P2;Temp;Humidity;BMP_temperature;BMP_pressure;BME280_temperature;BME280_humidity;BME280_pressure;Samples;Min_cycle;Max_cycle;Signal;HPM_P1;HPM_P2
2022/05/04 00:00:23;;;;;;;11.63;9.40;;;15.90;71.20;;;;;;4980801;28;20477;-42
2022/05/04 00:02:50;;;;;;;10.60;9.60;;;15.80;71.50;;;;;;4976284;28;20587;-43
2022/05/04 00:05:17;;;;;;;10.37;9.00;;;15.90;71.50;;;;;;4978915;28;20560;-43
2022/05/04 00:07:44;;;;;;;10.00;9.10;;;15.90;71.20;;;;;;4978656;28;20476;-42
2022/05/04 00:10:13;;;;;;;10.97;9.97;;;15.80;71.10;;;;;;4979915;28;21078;-42
2022/05/04 00:12:40;;;;;;;10.53;9.53;;;15.80;71.20;;;;;;4981292;28;20472;-43
2022/05/04 00:15:07;;;;;;;9.83;7.77;;;15.80;71.50;;;;;;4981664;28;20464;-42
2022/05/04 00:17:34;;;;;;;9.80;8.90;;;15.70;71.60;;;;;;4978732;28;20497;-42
2022/05/04 00:20:01;;;;;;;9.50;8.47;;;15.70;71.80;;;;;;4976384;28;20460;-43
2022/05/04 00:22:28;;;;;;;9.77;8.77;;;15.70;72.10;;;;;;4963852;28;20566;-42
2022/05/04 00:24:55;;;;;;;11.20;9.53;;;15.70;71.80;;;;;;4974987;28;20471;-42
2022/05/04 00:27:23;;;;;;;10.03;9.03;;;15.70;71.40;;;;;;4981645;28;20695;-42
2022/05/04 00:29:49;;;;;;;9.83;8.93;;;15.60;71.20;;;;;;4979477;28;20470;-43
2022/05/04 00:32:17;;;;;;;9.83;8.93;;;15.60;71.10;;;;;;4976827;28;20487;-42
2022/05/04 00:34:44;;;;;;;9.60;8.70;;;15.50;70.90;;;;;;4977493;28;20469;-42
2022/05/04 00:37:11;;;;;;;10.90;9.40;;;15.50;71.30;;;;;;4976703;28;20493;-42
2022/05/04 00:39:38;;;;;;;9.30;8.50;;;15.50;71.40;;;;;;4977927;28;20469;-42
2022/05/04 00:42:12;;;;;;;10.73;9.63;;;15.40;71.60;;;;;;4977363;28;20461;-42
2022/05/04 00:44:40;;;;;;;10.53;9.37;;;15.40;71.90;;;;;;4976127;28;20536;-42
2022/05/04 00:47:07;;;;;;;8.87;7.97;;;15.40;71.90;;;;;;4977952;28;20470;-42
2022/05/04 00:49:35;;;;;;;9.83;8.93;;;15.40;71.80;;;;;;4981118;28;20468;-42
2022/05/04 00:52:04;;;;;;;8.93;8.17;;;15.40;71.90;;;;;;4960286;28;20492;-42
2022/05/04 00:54:32;;;;;;;9.33;7.80;;;15.40;71.80;;;;;;4978514;28;20470;-42
2022/05/04 00:57:00;;;;;;;8.17;7.33;;;15.30;71.70;;;;;;4975003;28;20469;-42
2022/05/04 00:59:29;;;;;;;8.87;8.00;;;15.30;71.20;;;;;;4975487;28;20832;-41
2022/05/04 01:01:56;;;;;;;8.30;7.47;;;15.30;71.10;;;;;;4979758;28;20465;-43
2022/05/04 01:04:24;;;;;;;8.47;7.67;;;15.20;71.20;;;;;;4977718;28;20985;-43
2022/05/04 01:06:51;;;;;;;11.20;8.20;;;15.20;71.10;;;;;;4959920;28;20476;-42
2022/05/04 01:09:17;;;;;;;8.90;8.00;;;15.20;71.00;;;;;;4962597;28;20445;-42
2022/05/04 01:11:46;;;;;;;9.23;7.63;;;15.20;70.90;;;;;;4958942;28;20473;-42
2022/05/04 01:14:14;;;;;;;9.63;7.10;;;15.10;70.50;;;;;;4975301;28;20465;-42
2022/05/04 01:16:43;;;;;;;8.43;7.67;;;15.10;70.30;;;;;;4975664;28;20472;-42
2022/05/04 01:19:12;;;;;;;8.40;7.60;;;15.10;70.00;;;;;;4980268;28;20554;-42
2022/05/04 01:21:39;;;;;;;9.20;7.80;;;15.10;69.90;;;;;;4978180;28;20471;-42
2022/05/04 01:24:08;;;;;;;9.53;8.33;;;15.10;69.60;;;;;;4976006;28;20479;-42
2022/05/04 01:26:34;;;;;;;8.60;7.83;;;15.10;69.80;;;;;;4975281;28;20492;-42
2022/05/04 01:29:01;;;;;;;8.27;7.50;;;15.00;69.90;;;;;;4978615;28;20472;-42
2022/05/04 01:31:28;;;;;;;9.30;8.30;;;15.00;70.30;;;;;;4978192;28;20497;-42
2022/05/04 01:33:55;;;;;;;10.00;8.60;;;15.10;71.20;;;;;;4979059;28;20492;-42
2022/05/04 01:36:22;;;;;;;9.60;8.60;;;15.10;70.70;;;;;;4977442;28;20483;-42
2022/05/04 01:38:48;;;;;;;13.03;8.80;;;15.00;70.70;;;;;;4975433;28;20496;-42
2022/05/04 01:44:00;;;;;;;10.13;9.00;;;14.90;70.90;;;;;;4978554;28;20489;-42
2022/05/04 01:46:27;;;;;;;10.97;9.43;;;14.90;71.10;;;;;;4978257;28;21111;-42
2022/05/04 01:48:54;;;;;;;9.60;8.73;;;14.80;70.70;;;;;;4977891;28;20493;-42
2022/05/04 01:51:21;;;;;;;9.90;8.90;;;14.80;69.90;;;;;;4977477;28;20487;-42
2022/05/04 01:53:48;;;;;;;9.23;8.43;;;14.70;70.40;;;;;;4977258;28;20464;-42
2022/05/04 01:56:15;;;;;;;15.23;8.17;;;14.60;71.20;;;;;;4975896;28;20472;-42
2022/05/04 01:58:42;;;;;;;10.67;9.67;;;14.60;72.00;;;;;;4964082;28;20864;-42
2022/05/04 02:01:09;;;;;;;9.10;8.10;;;14.60;72.20;;;;;;4980058;28;20456;-42
2022/05/04 02:03:37;;;;;;;8.83;7.93;;;14.50;72.30;;;;;;4978486;28;20453;-41
2022/05/04 02:06:05;;;;;;;10.23;9.20;;;14.50;72.50;;;;;;4963905;28;20456;-41
2022/05/04 02:08:33;;;;;;;9.97;9.03;;;14.50;72.70;;;;;;4980721;28;20474;-42
2022/05/04 02:11:01;;;;;;;10.30;9.17;;;14.40;72.70;;;;;;4984554;28;20847;-41
2022/05/04 02:13:28;;;;;;;9.30;8.50;;;14.40;72.70;;;;;;4982486;28;20954;-42
2022/05/04 02:15:55;;;;;;;8.90;8.00;;;14.40;73.10;;;;;;4977718;28;21000;-41
2022/05/04 02:18:21;;;;;;;11.70;10.70;;;14.40;72.90;;;;;;4982446;28;20519;-42
2022/05/04 02:20:48;;;;;;;10.67;9.57;;;14.40;72.90;;;;;;4980557;28;20468;-42
2022/05/04 02:23:15;;;;;;;10.17;9.17;;;14.40;72.70;;;;;;4982588;28;20486;-41
2022/05/04 02:25:41;;;;;;;10.60;8.20;;;14.40;72.40;;;;;;4984404;28;20472;-42
2022/05/04 02:28:08;;;;;;;10.40;9.40;;;14.40;72.20;;;;;;4984904;28;21045;-42
2022/05/04 02:30:35;;;;;;;8.90;8.10;;;14.40;72.20;;;;;;4984494;28;21065;-42
2022/05/04 02:33:02;;;;;;;10.23;9.13;;;14.40;72.40;;;;;;4983492;28;20463;-42
2022/05/04 02:38:14;;;;;;;9.67;8.87;;;14.30;72.30;;;;;;4982433;28;20495;-42
2022/05/04 02:40:40;;;;;;;9.90;9.00;;;14.30;72.40;;;;;;4979505;28;20488;-42
2022/05/04 02:43:07;;;;;;;9.40;8.50;;;14.20;72.20;;;;;;4978903;28;20825;-41
2022/05/04 02:45:34;;;;;;;9.83;8.93;;;14.20;72.40;;;;;;4983327;28;21029;-41
2022/05/04 02:48:02;;;;;;;10.10;8.57;;;14.20;72.50;;;;;;4977245;28;20472;-41
2022/05/04 02:50:28;;;;;;;8.90;8.10;;;14.20;72.60;;;;;;4978575;28;20473;-41
2022/05/04 02:52:55;;;;;;;11.57;9.33;;;14.10;72.70;;;;;;4986790;28;20468;-45
2022/05/04 02:55:22;;;;;;;8.70;7.90;;;14.10;72.80;;;;;;4986747;28;20499;-46
2022/05/04 02:57:49;;;;;;;8.30;7.50;;;14.20;72.90;;;;;;4983565;28;20497;-42
2022/05/04 03:00:18;;;;;;;10.47;9.30;;;14.20;72.70;;;;;;4985096;28;20776;-44
2022/05/04 03:02:45;;;;;;;9.90;8.37;;;14.10;72.60;;;;;;4986681;28;20478;-44
2022/05/04 03:05:14;;;;;;;8.60;7.37;;;14.20;72.50;;;;;;4963329;28;20977;-43
2022/05/04 03:07:41;;;;;;;9.60;7.90;;;14.10;72.30;;;;;;4985076;28;20480;-44
2022/05/04 03:10:08;;;;;;;10.50;7.93;;;14.10;72.20;;;;;;4963483;28;20992;-43
2022/05/04 03:12:35;;;;;;;8.40;7.70;;;14.00;72.40;;;;;;4986869;28;20476;-44
2022/05/04 03:15:04;;;;;;;9.53;8.53;;;14.00;72.40;;;;;;4985861;28;20457;-44
2022/05/04 03:17:30;;;;;;;8.87;8.07;;;14.00;72.50;;;;;;4988447;28;20479;-44
2022/05/04 03:19:58;;;;;;;10.77;7.47;;;14.00;72.40;;;;;;4962744;28;20467;-44
2022/05/04 03:22:25;;;;;;;11.43;8.10;;;13.90;72.20;;;;;;4981347;28;20472;-44
2022/05/04 03:24:53;;;;;;;8.20;7.40;;;13.90;72.20;;;;;;4980582;28;20955;-44
2022/05/04 03:27:20;;;;;;;10.10;8.97;;;13.80;72.80;;;;;;4985012;28;20457;-44
2022/05/04 03:29:46;;;;;;;8.77;7.90;;;13.80;72.90;;;;;;4981589;28;21210;-44
2022/05/04 03:32:13;;;;;;;9.67;8.50;;;13.80;72.80;;;;;;4983845;28;20538;-44
2022/05/04 03:34:40;;;;;;;8.67;7.87;;;13.70;72.90;;;;;;4982898;28;20477;-44
2022/05/04 03:37:07;;;;;;;9.80;8.33;;;13.70;73.10;;;;;;4985972;28;20475;-44
2022/05/04 03:39:34;;;;;;;9.77;8.13;;;13.70;73.10;;;;;;4982449;28;20564;-44
2022/05/04 03:42:00;;;;;;;9.50;8.70;;;13.60;73.20;;;;;;4966682;28;20484;-44
2022/05/04 03:44:27;;;;;;;10.53;8.20;;;13.60;73.40;;;;;;4981880;28;20476;-44
2022/05/04 03:46:54;;;;;;;9.73;8.73;;;13.70;73.50;;;;;;4980570;28;20468;-44
2022/05/04 03:49:23;;;;;;;11.33;9.40;;;13.70;73.50;;;;;;4982070;28;20479;-43
2022/05/04 03:51:51;;;;;;;9.53;8.33;;;13.60;73.40;;;;;;4980640;28;20479;-44
2022/05/04 03:54:18;;;;;;;9.20;8.40;;;13.60;73.30;;;;;;4984044;28;20465;-43
2022/05/04 03:56:45;;;;;;;9.83;8.80;;;13.50;73.40;;;;;;4965860;28;20508;-43
2022/05/04 03:59:12;;;;;;;10.20;8.30;;;13.60;73.20;;;;;;4984770;28;20494;-43
2022/05/04 04:01:39;;;;;;;13.83;8.90;;;13.60;73.10;;;;;;4978727;28;20476;-44
2022/05/04 04:04:06;;;;;;;9.47;7.90;;;13.50;72.90;;;;;;4981350;28;20461;-44
2022/05/04 04:06:33;;;;;;;8.87;7.90;;;13.50;72.70;;;;;;4983029;28;20476;-44
2022/05/04 04:09:02;;;;;;;8.37;7.67;;;13.40;72.70;;;;;;4982679;28;20478;-44
2022/05/04 04:11:29;;;;;;;9.53;8.30;;;13.40;72.90;;;;;;4983755;28;20461;-44
2022/05/04 04:13:56;;;;;;;9.10;8.20;;;13.40;72.80;;;;;;4982239;28;20469;-44
2022/05/04 04:16:25;;;;;;;10.23;9.17;;;13.40;72.90;;;;;;4981594;28;20472;-43
2022/05/04 04:18:51;;;;;;;13.67;8.80;;;13.30;73.40;;;;;;4985141;28;20985;-44
2022/05/04 04:24:04;;;;;;;10.63;9.30;;;13.30;73.80;;;;;;4984063;28;20863;-44
2022/05/04 04:26:31;;;;;;;14.03;9.23;;;13.30;74.30;;;;;;4981835;28;20524;-44
2022/05/04 04:28:58;;;;;;;9.63;7.80;;;13.30;74.30;;;;;;4981443;28;20472;-45
2022/05/04 04:31:25;;;;;;;9.40;8.43;;;13.40;74.20;;;;;;4959931;28;20489;-44
2022/05/04 04:33:52;;;;;;;10.63;8.70;;;13.40;74.00;;;;;;4980771;28;20512;-44
2022/05/04 04:36:19;;;;;;;11.73;9.47;;;13.40;74.00;;;;;;4984278;28;20477;-44
2022/05/04 04:38:45;;;;;;;11.57;8.67;;;13.40;74.40;;;;;;4982053;28;20500;-44
2022/05/04 04:41:13;;;;;;;11.60;8.43;;;13.40;74.40;;;;;;4980098;28;20504;-44
2022/05/04 04:43:39;;;;;;;9.17;8.27;;;13.40;74.50;;;;;;4981527;28;20982;-44
2022/05/04 04:46:06;;;;;;;10.03;8.80;;;13.40;74.70;;;;;;4983768;28;20464;-44
2022/05/04 04:48:33;;;;;;;10.07;8.90;;;13.40;74.80;;;;;;4986209;28;20472;-44
2022/05/04 04:51:00;;;;;;;9.37;8.47;;;13.50;74.90;;;;;;4979639;28;20837;-44
2022/05/04 04:53:27;;;;;;;8.43;7.60;;;13.50;74.70;;;;;;4962562;28;20903;-44
2022/05/04 04:55:54;;;;;;;8.53;7.73;;;13.50;74.50;;;;;;4982752;28;20476;-43
2022/05/04 04:58:20;;;;;;;9.30;8.30;;;13.50;74.50;;;;;;4981292;28;21005;-43
2022/05/04 05:00:47;;;;;;;8.57;7.77;;;13.50;74.60;;;;;;4960697;28;20888;-44
2022/05/04 05:03:14;;;;;;;9.30;8.30;;;13.50;74.60;;;;;;4980864;28;20846;-44
2022/05/04 05:05:42;;;;;;;11.00;9.77;;;13.60;74.70;;;;;;4980672;28;20467;-43
2022/05/04 05:08:10;;;;;;;15.47;10.80;;;13.60;74.50;;;;;;4976039;28;20471;-43
2022/05/04 05:10:37;;;;;;;11.27;9.57;;;13.60;74.40;;;;;;4979818;28;20544;-44
2022/05/04 05:13:05;;;;;;;13.67;8.83;;;13.60;74.30;;;;;;4984880;28;20976;-44
2022/05/04 05:18:20;;;;;;;9.03;7.40;;;13.70;74.50;;;;;;4982196;28;21025;-44
2022/05/04 05:20:47;;;;;;;8.67;7.77;;;13.70;74.60;;;;;;4983629;28;20980;-43
2022/05/04 05:23:21;;;;;;;8.60;7.70;;;13.80;74.60;;;;;;4983986;28;20558;-44
2022/05/04 05:25:47;;;;;;;11.30;7.80;;;13.80;74.50;;;;;;4975446;28;20475;-44
2022/05/04 05:28:14;;;;;;;13.20;8.70;;;13.80;74.50;;;;;;4982782;28;20465;-43
2022/05/04 05:30:42;;;;;;;9.20;8.20;;;13.80;74.30;;;;;;4968859;28;20476;-44
2022/05/04 05:33:09;;;;;;;8.00;7.13;;;13.80;74.20;;;;;;4984007;28;20465;-44
2022/05/04 05:35:37;;;;;;;9.77;7.57;;;13.90;74.20;;;;;;4965491;28;20453;-44
2022/05/04 05:38:04;;;;;;;10.20;8.03;;;13.90;74.20;;;;;;4982713;28;20556;-44
2022/05/04 05:40:30;;;;;;;9.97;8.33;;;13.90;74.00;;;;;;4981107;28;20477;-44
2022/05/04 05:42:57;;;;;;;9.73;7.87;;;14.00;73.90;;;;;;4961815;28;20516;-41
2022/05/04 05:45:24;;;;;;;8.77;8.00;;;14.00;73.70;;;;;;4977000;28;20494;-42
2022/05/04 05:47:52;;;;;;;8.63;7.83;;;14.00;73.70;;;;;;4974575;28;20473;-42
2022/05/04 05:50:18;;;;;;;9.13;8.27;;;14.10;73.60;;;;;;4978736;28;20467;-41
2022/05/04 05:52:46;;;;;;;10.23;8.67;;;14.20;73.40;;;;;;4959616;28;20468;-41
2022/05/04 05:55:12;;;;;;;10.03;7.80;;;14.30;73.80;;;;;;4978365;28;20478;-41
2022/05/04 05:57:39;;;;;;;9.87;8.30;;;14.30;73.70;;;;;;4966296;28;20475;-41
2022/05/04 06:00:07;;;;;;;9.50;8.50;;;14.30;73.50;;;;;;4979537;28;20490;-41
2022/05/04 06:02:34;;;;;;;9.70;8.00;;;14.30;73.20;;;;;;4983585;28;20470;-41
2022/05/04 06:05:01;;;;;;;10.03;8.37;;;14.40;73.30;;;;;;4977591;28;20460;-41
2022/05/04 06:07:27;;;;;;;10.60;7.97;;;14.40;73.30;;;;;;4960530;28;20456;-41
2022/05/04 06:09:54;;;;;;;9.30;8.33;;;14.50;72.30;;;;;;4961528;28;20513;-41
2022/05/04 06:12:22;;;;;;;10.03;7.57;;;14.50;72.30;;;;;;4980414;28;20881;-41
2022/05/04 06:14:49;;;;;;;10.20;8.13;;;14.60;72.00;;;;;;4979391;28;20465;-41
2022/05/04 06:17:16;;;;;;;11.70;8.10;;;14.60;71.50;;;;;;4979468;28;20830;-41
2022/05/04 06:19:42;;;;;;;8.43;7.50;;;14.70;69.80;;;;;;4963805;28;21055;-42
2022/05/04 06:22:09;;;;;;;9.53;7.17;;;14.80;68.70;;;;;;4977983;28;20468;-41
2022/05/04 06:24:36;;;;;;;10.50;7.70;;;14.80;68.80;;;;;;4983117;28;20456;-41
2022/05/04 06:27:03;;;;;;;12.50;8.00;;;14.90;68.70;;;;;;4982001;28;20494;-41
2022/05/04 06:35:07;;;;;;;8.20;7.37;;;15.10;68.10;;;;;;4969285;28;20461;-42
2022/05/04 06:37:34;;;;;;;7.30;6.57;;;15.20;68.00;;;;;;4980002;28;20593;-42
2022/05/04 06:40:01;;;;;;;9.77;8.70;;;15.30;68.20;;;;;;4978691;28;20480;-42
2022/05/04 06:42:28;;;;;;;9.80;8.10;;;15.50;68.20;;;;;;4980023;28;20460;-42
2022/05/04 06:45:00;;;;;;;10.20;8.00;;;15.60;67.80;;;;;;4978593;28;20786;-42
2022/05/04 06:47:27;;;;;;;8.80;7.80;;;15.70;67.80;;;;;;4976919;28;20845;-43
2022/05/04 06:49:54;;;;;;;10.80;8.30;;;15.90;67.40;;;;;;4977298;28;20464;-43
2022/05/04 06:52:24;;;;;;;8.77;7.37;;;16.00;66.10;;;;;;4979859;28;20984;-43
2022/05/04 06:54:52;;;;;;;10.53;8.13;;;16.00;65.90;;;;;;4978558;28;21262;-42
2022/05/04 06:57:19;;;;;;;8.67;7.73;;;16.00;65.60;;;;;;4981046;28;20476;-42
2022/05/04 06:59:46;;;;;;;9.50;7.60;;;16.10;65.90;;;;;;4977187;28;20489;-42
2022/05/04 07:02:14;;;;;;;8.50;6.67;;;16.10;65.60;;;;;;4977517;28;20473;-43
2022/05/04 07:04:41;;;;;;;9.63;7.57;;;16.10;65.80;;;;;;4963437;28;20470;-43
2022/05/04 07:07:08;;;;;;;7.60;6.83;;;16.10;66.10;;;;;;4980905;28;20479;-43
2022/05/04 07:09:34;;;;;;;12.13;8.80;;;16.10;65.80;;;;;;4982348;28;20465;-43
2022/05/04 07:12:01;;;;;;;11.40;7.90;;;16.00;65.70;;;;;;4982787;28;20468;-43
2022/05/04 07:14:28;;;;;;;11.20;8.27;;;16.00;66.00;;;;;;4975962;28;20844;-42
2022/05/04 07:16:55;;;;;;;11.30;8.63;;;16.00;65.70;;;;;;4982488;28;20457;-42
2022/05/04 07:19:22;;;;;;;10.27;8.17;;;16.00;64.80;;;;;;4983920;28;21015;-42
2022/05/04 07:21:48;;;;;;;12.30;7.50;;;16.00;64.80;;;;;;4978585;28;21152;-42
2022/05/04 07:24:15;;;;;;;11.00;7.43;;;16.20;65.70;;;;;;4981045;28;21914;-43
2022/05/04 07:26:42;;;;;;;8.67;7.80;;;16.40;65.70;;;;;;4979920;28;20515;-43
2022/05/04 07:29:09;;;;;;;9.33;7.40;;;16.60;65.10;;;;;;4983403;28;21481;-43
2022/05/04 07:31:43;;;;;;;10.00;7.47;;;16.90;63.60;;;;;;4980200;28;20494;-43
2022/05/04 07:34:11;;;;;;;7.63;6.70;;;17.20;63.70;;;;;;4961891;28;20948;-43
2022/05/04 07:36:39;;;;;;;10.30;7.87;;;17.50;62.80;;;;;;4978825;28;20585;-43
2022/05/04 07:39:06;;;;;;;7.07;6.17;;;17.70;63.00;;;;;;4982184;28;20495;-43
2022/05/04 07:44:20;;;;;;;9.67;7.30;;;17.90;62.00;;;;;;4980132;28;20459;-43
2022/05/04 07:46:48;;;;;;;9.30;8.30;;;17.90;61.70;;;;;;4977974;28;20471;-43
2022/05/04 07:49:15;;;;;;;12.77;8.23;;;17.90;62.40;;;;;;4975843;28;20462;-43
2022/05/04 07:51:42;;;;;;;11.00;8.70;;;17.80;61.60;;;;;;4976561;28;20508;-43
2022/05/04 07:54:09;;;;;;;8.70;7.40;;;17.80;62.40;;;;;;4966590;28;20490;-43
2022/05/04 07:56:36;;;;;;;8.83;7.07;;;17.80;62.30;;;;;;4961596;28;20955;-43
2022/05/04 07:59:03;;;;;;;8.47;7.10;;;17.80;62.60;;;;;;4977806;28;20493;-43
2022/05/04 08:04:19;;;;;;;7.90;7.07;;;17.90;60.60;;;;;;4980001;28;20467;-42
2022/05/04 08:06:46;;;;;;;10.13;7.23;;;17.80;60.00;;;;;;4976672;28;20462;-43
2022/05/04 08:09:13;;;;;;;9.83;7.03;;;17.80;60.20;;;;;;4981340;28;20472;-43
2022/05/04 08:11:41;;;;;;;8.20;7.40;;;17.80;60.20;;;;;;4960460;28;20476;-43
2022/05/04 08:14:08;;;;;;;8.30;7.50;;;17.80;60.00;;;;;;4972400;28;20482;-42
2022/05/04 08:16:36;;;;;;;8.17;7.30;;;17.70;60.00;;;;;;4974397;28;20475;-43
2022/05/04 08:19:03;;;;;;;9.27;7.40;;;17.70;60.40;;;;;;4979022;28;21074;-43
2022/05/04 08:21:31;;;;;;;9.50;7.10;;;17.80;60.20;;;;;;4976949;28;20473;-42
2022/05/04 08:23:58;;;;;;;9.10;7.20;;;17.80;60.50;;;;;;4977673;28;20553;-42
2022/05/04 08:26:39;;;;;;;10.57;7.03;;;17.90;60.90;;;;;;4976242;28;20467;-42
2022/05/04 08:29:06;;;;;;;9.50;6.80;;;17.90;60.60;;;;;;4974156;28;20505;-42
2022/05/04 08:31:36;;;;;;;8.77;7.10;;;18.00;60.40;;;;;;4980213;28;20499;-43
2022/05/04 08:34:03;;;;;;;8.20;7.10;;;18.00;59.90;;;;;;4974399;28;20793;-43
2022/05/04 08:36:30;;;;;;;10.37;8.00;;;18.10;59.60;;;;;;4972702;28;20974;-43
2022/05/04 08:38:57;;;;;;;7.73;6.93;;;18.10;59.60;;;;;;4979436;28;20474;-42
2022/05/04 08:41:26;;;;;;;8.27;7.37;;;18.10;60.70;;;;;;4976256;28;21093;-42
2022/05/04 08:43:55;;;;;;;8.93;7.73;;;18.10;60.50;;;;;;4971224;28;20464;-42
2022/05/04 08:46:23;;;;;;;7.80;7.00;;;18.10;60.60;;;;;;4964311;28;20982;-42
2022/05/04 08:48:51;;;;;;;10.63;7.90;;;18.10;61.00;;;;;;4974919;28;20557;-42
2022/05/04 08:51:19;;;;;;;10.37;7.83;;;18.00;61.20;;;;;;4975746;28;20474;-42
2022/05/04 08:53:49;;;;;;;8.40;7.60;;;18.00;61.20;;;;;;4979540;28;20966;-42
2022/05/04 08:56:16;;;;;;;8.07;7.23;;;18.00;61.60;;;;;;4979394;28;20848;-42
2022/05/04 08:58:43;;;;;;;8.37;7.10;;;17.90;61.90;;;;;;4980124;28;20450;-42
2022/05/04 09:01:12;;;;;;;8.77;7.67;;;18.10;62.50;;;;;;4976880;28;20497;-42
2022/05/04 09:03:39;;;;;;;8.67;6.83;;;18.40;60.80;;;;;;4979274;28;20460;-42
2022/05/04 09:06:06;;;;;;;9.63;6.63;;;18.80;59.40;;;;;;4977050;28;20457;-42
2022/05/04 09:08:59;;;;;;;8.57;7.70;;;19.10;58.90;;;;;;4967588;28;20456;-41
2022/05/04 09:11:25;;;;;;;9.30;7.90;;;19.50;57.40;;;;;;4963437;28;20469;-41
2022/05/04 09:13:54;;;;;;;8.67;7.87;;;19.90;57.00;;;;;;4965409;28;21055;-42
2022/05/04 09:16:29;;;;;;;8.10;7.30;;;20.20;55.90;;;;;;4949000;28;20470;-41
2022/05/04 09:18:58;;;;;;;10.67;7.70;;;20.40;54.40;;;;;;4977901;28;20472;-42
2022/05/04 09:21:26;;;;;;;8.63;7.43;;;20.70;54.40;;;;;;4978101;28;21324;-42
2022/05/04 09:23:53;;;;;;;10.07;7.90;;;20.90;54.10;;;;;;4978856;28;20497;-42
2022/05/04 09:26:22;;;;;;;8.53;7.73;;;21.00;53.20;;;;;;4959918;28;20466;-42
2022/05/04 09:29:00;;;;;;;8.70;6.57;;;21.20;53.10;;;;;;4979320;28;20961;-42
2022/05/04 09:31:30;;;;;;;8.00;7.20;;;21.40;52.60;;;;;;4977182;28;20572;-42
2022/05/04 09:33:59;;;;;;;9.17;7.60;;;21.60;52.20;;;;;;4977594;28;20462;-42
2022/05/04 09:36:33;;;;;;;8.40;7.53;;;21.80;51.40;;;;;;4977704;28;20476;-42
2022/05/04 09:45:15;;;;;;;10.33;8.20;;;22.40;51.50;;;;;;4976792;28;20552;-43
2022/05/04 09:47:46;;;;;;;9.50;7.80;;;22.70;50.90;;;;;;4959864;28;20460;-45
2022/05/04 09:50:15;;;;;;;9.07;7.43;;;22.90;50.30;;;;;;4967256;28;20556;-45
2022/05/04 09:52:49;;;;;;;9.73;8.10;;;22.90;50.30;;;;;;4967109;28;22017;-45
2022/05/04 09:55:24;;;;;;;9.90;8.90;;;23.00;50.60;;;;;;4966987;28;20471;-45
2022/05/04 09:57:55;;;;;;;9.03;7.17;;;23.10;49.60;;;;;;4976796;28;20463;-44
2022/05/04 10:00:24;;;;;;;11.63;8.10;;;23.30;49.50;;;;;;4973295;28;20626;-45
2022/05/04 10:02:53;;;;;;;10.43;7.13;;;23.50;49.30;;;;;;4980814;28;20465;-44
2022/05/04 10:05:21;;;;;;;9.90;8.40;;;23.70;49.10;;;;;;4980672;28;21022;-44
2022/05/04 10:07:51;;;;;;;10.20;7.73;;;23.90;48.70;;;;;;4974898;28;20458;-44
2022/05/04 10:10:22;;;;;;;8.73;7.47;;;24.00;47.70;;;;;;4967879;28;20540;-45
2022/05/04 10:12:48;;;;;;;9.30;7.27;;;24.10;48.30;;;;;;4959025;28;21224;-45
2022/05/04 10:15:18;;;;;;;9.50;7.80;;;24.20;47.70;;;;;;4977071;28;20467;-45
2022/05/04 10:17:50;;;;;;;9.07;6.60;;;24.10;48.10;;;;;;4978195;28;20468;-45
2022/05/04 10:20:21;;;;;;;11.13;7.80;;;24.00;48.60;;;;;;4956961;28;21293;-45
2022/05/04 10:23:22;;;;;;;13.27;8.00;;;24.00;48.60;;;;;;4977989;28;20472;-45
2022/05/04 10:25:52;;;;;;;8.43;7.40;;;24.00;47.30;;;;;;4956018;28;20456;-45
2022/05/04 10:28:19;;;;;;;9.63;8.63;;;24.00;48.40;;;;;;4978927;28;20453;-45
2022/05/04 10:30:57;;;;;;;9.83;8.93;;;23.80;48.10;;;;;;4981564;28;20515;-45
2022/05/04 10:33:30;;;;;;;9.67;8.77;;;23.60;48.50;;;;;;4956963;28;20488;-45
2022/05/04 10:36:17;;;;;;;11.20;8.70;;;23.40;49.80;;;;;;4979630;28;20854;-45
2022/05/04 10:38:44;;;;;;;8.90;8.00;;;23.20;49.20;;;;;;4979887;28;20472;-45
2022/05/04 10:41:15;;;;;;;9.13;8.23;;;22.90;49.90;;;;;;4981054;28;20910;-45
2022/05/04 10:43:50;;;;;;;8.10;7.30;;;22.70;49.50;;;;;;4959326;28;20860;-45
2022/05/04 10:46:22;;;;;;;8.40;7.40;;;22.70;49.10;;;;;;4981367;28;20448;-45
2022/05/04 10:48:57;;;;;;;10.20;9.30;;;22.80;49.30;;;;;;4982397;28;20860;-45
2022/05/04 10:51:27;;;;;;;10.60;9.50;;;22.80;48.80;;;;;;4984194;28;20969;-44
2022/05/04 10:54:18;;;;;;;7.53;6.90;;;22.70;48.80;;;;;;4976267;28;20925;-45
2022/05/04 10:56:53;;;;;;;11.30;7.83;;;22.50;50.00;;;;;;4979799;28;20470;-44
2022/05/04 10:59:33;;;;;;;12.00;8.50;;;22.50;50.50;;;;;;4966396;28;20544;-44
2022/05/04 11:02:05;;;;;;;8.93;8.10;;;22.50;49.90;;;;;;4981964;28;20473;-44
2022/05/04 11:04:34;;;;;;;9.73;8.80;;;22.40;50.20;;;;;;4979989;28;20825;-44
2022/05/04 11:07:03;;;;;;;9.90;8.23;;;22.30;50.90;;;;;;4971997;28;20837;-44
2022/05/04 11:09:38;;;;;;;8.67;7.87;;;22.30;51.50;;;;;;4981117;28;21031;-45
2022/05/04 11:12:07;;;;;;;10.07;7.77;;;22.30;51.60;;;;;;4966971;28;20485;-44
2022/05/04 11:14:34;;;;;;;9.07;8.27;;;22.30;51.90;;;;;;4983642;28;20456;-44
2022/05/04 11:17:10;;;;;;;8.10;7.40;;;22.30;52.40;;;;;;4978977;28;20459;-45
2022/05/04 11:19:45;;;;;;;7.47;6.73;;;22.20;52.40;;;;;;4981111;28;20461;-45
2022/05/04 11:22:16;;;;;;;9.00;8.10;;;22.20;52.30;;;;;;4983141;28;20461;-45
2022/05/04 11:25:03;;;;;;;8.70;6.77;;;22.10;50.70;;;;;;4967196;28;20472;-44
2022/05/04 11:27:31;;;;;;;9.10;7.90;;;22.00;51.90;;;;;;4975984;28;20457;-44
2022/05/04 11:29:58;;;;;;;8.27;7.50;;;21.90;51.00;;;;;;4975669;28;20469;-44
2022/05/04 11:32:27;;;;;;;7.63;6.93;;;21.80;52.20;;;;;;4976982;28;20485;-44
2022/05/04 11:34:56;;;;;;;9.17;8.27;;;21.70;52.40;;;;;;4978332;28;20454;-44
2022/05/04 11:37:23;;;;;;;8.63;7.23;;;21.70;52.00;;;;;;4977580;28;20465;-44
2022/05/04 11:39:50;;;;;;;9.13;7.63;;;21.70;52.90;;;;;;4978045;28;20458;-44
2022/05/04 11:42:18;;;;;;;7.00;6.30;;;21.60;52.60;;;;;;4979191;28;20567;-44
2022/05/04 11:44:47;;;;;;;7.07;5.80;;;21.60;53.00;;;;;;4978882;28;20561;-44
2022/05/04 11:47:14;;;;;;;7.73;7.10;;;21.70;52.50;;;;;;4976296;28;20914;-44
2022/05/04 11:49:41;;;;;;;9.20;8.30;;;21.70;52.70;;;;;;4978616;28;20464;-45
2022/05/04 11:52:08;;;;;;;8.07;7.27;;;21.80;52.80;;;;;;4979922;28;20450;-43
2022/05/04 11:54:35;;;;;;;10.00;7.50;;;21.70;52.10;;;;;;4975943;28;20560;-44
2022/05/04 11:57:13;;;;;;;8.30;6.60;;;21.70;53.60;;;;;;4981712;28;20473;-44
2022/05/04 11:59:39;;;;;;;7.80;7.10;;;21.80;54.10;;;;;;4961523;28;20492;-44
2022/05/04 12:02:08;;;;;;;7.60;6.90;;;21.80;52.90;;;;;;4977944;28;20581;-44
2022/05/04 12:04:36;;;;;;;7.27;6.60;;;21.80;52.50;;;;;;4966391;28;20811;-44
2022/05/04 12:07:04;;;;;;;6.53;5.93;;;21.80;53.00;;;;;;4982899;28;20488;-44
2022/05/04 12:09:30;;;;;;;7.17;6.47;;;21.80;52.30;;;;;;4979005;28;20464;-44
2022/05/04 12:11:57;;;;;;;7.23;6.40;;;21.80;52.00;;;;;;4979416;28;20465;-45
2022/05/04 12:14:26;;;;;;;6.80;6.23;;;21.90;52.90;;;;;;4962026;28;20466;-45
2022/05/04 12:16:54;;;;;;;6.80;6.20;;;21.90;52.20;;;;;;4975648;28;20465;-44
2022/05/04 12:19:20;;;;;;;7.33;5.90;;;22.00;51.50;;;;;;4977411;28;20472;-45
2022/05/04 12:21:47;;;;;;;5.83;5.27;;;22.10;51.60;;;;;;4980459;28;20478;-44
2022/05/04 12:24:14;;;;;;;6.57;5.77;;;22.10;51.80;;;;;;4978495;28;20550;-44
2022/05/04 12:26:42;;;;;;;5.97;5.37;;;22.20;52.40;;;;;;4978866;28;20870;-44
2022/05/04 12:34:43;;;;;;;6.23;5.63;;;22.40;50.20;;;;;;4977428;28;20507;-45
2022/05/04 12:37:11;;;;;;;6.17;5.67;;;22.40;50.10;;;;;;4981656;28;20465;-45
2022/05/04 12:39:41;;;;;;;7.57;6.87;;;22.30;49.40;;;;;;4978106;28;20485;-43
2022/05/04 12:42:08;;;;;;;9.57;6.23;;;22.30;49.60;;;;;;4981240;28;20603;-43
2022/05/04 12:44:35;;;;;;;10.23;8.27;;;22.40;50.20;;;;;;4979466;28;21042;-44
2022/05/04 12:47:02;;;;;;;7.60;6.57;;;22.50;49.60;;;;;;4979159;28;20456;-43
2022/05/04 12:49:30;;;;;;;8.37;5.90;;;22.50;49.50;;;;;;4952702;28;20462;-43
2022/05/04 12:51:56;;;;;;;7.30;6.70;;;22.50;49.60;;;;;;4979721;28;20485;-43
2022/05/04 12:54:24;;;;;;;8.00;7.23;;;22.60;49.50;;;;;;4973798;28;20468;-43
2022/05/04 12:56:51;;;;;;;7.77;7.00;;;22.60;49.00;;;;;;4978593;28;20599;-43
2022/05/04 12:59:19;;;;;;;6.70;5.90;;;22.60;48.40;;;;;;4975323;28;20475;-43
2022/05/04 13:01:46;;;;;;;8.03;7.23;;;22.60;48.80;;;;;;4979817;28;20535;-44
2022/05/04 13:04:15;;;;;;;6.87;6.20;;;22.70;49.80;;;;;;4974318;28;20458;-44
2022/05/04 13:06:43;;;;;;;8.03;6.70;;;22.70;50.10;;;;;;4978574;28;21009;-44
2022/05/04 13:09:10;;;;;;;8.57;7.60;;;22.60;49.60;;;;;;4975287;28;20479;-44
2022/05/04 13:11:37;;;;;;;7.13;6.43;;;22.50;49.70;;;;;;4959615;28;20468;-44
2022/05/04 13:14:04;;;;;;;6.20;5.60;;;22.50;49.50;;;;;;4977583;28;20479;-44
2022/05/04 13:16:34;;;;;;;7.83;7.07;;;22.40;49.30;;;;;;4977368;28;20461;-44
2022/05/04 13:19:02;;;;;;;8.47;7.20;;;22.30;49.50;;;;;;4977758;28;20466;-44
2022/05/04 13:21:30;;;;;;;8.03;6.80;;;22.20;48.70;;;;;;4964270;28;20476;-44